sensor_id;sensor_type;location;lat;lon;timestamp;P1;durP1;ratioP1;P2;durP2;ratioP2
8225;SDS011;4154;48.810;9.012;2023-12-20T00:01:26;1.60;;;1.50;;
8225;SDS011;4154;48.810;9.012;2023-12-20T00:03:51;1.50;;;1.40;;
8225;SDS011;4154;48.810;9.012;2023-12-20T00:06:17;1.70;;;1.60;;
8225;SDS011;4154;48.810;9.012;2023-12-20T00:08:43;1.70;;;1.60;;
8225;SDS011;4154;48.810;9.012;2023-12-20T00:11:09;2.57;;;1.60;;
8225;SDS011;4154;48.810;9.012;2023-12-20T00:13:35;1.60;;;1.50;;
8225;SDS011;4154;48.810;9.012;2023-12-20T00:16:00;1.70;;;1.60;;
8225;SDS011;4154;48.810;9.012;2023-12-20T00:18:26;1.50;;;1.40;;
8225;SDS011;4154;48.810;9.012;2023-12-20T00:20:52;1.80;;;1.70;;
8225;SDS011;4154;48.810;9.012;2023-12-20T00:23:17;1.50;;;1.40;;
8225;SDS011;4154;48.810;9.012;2023-12-20T00:25:43;2.10;;;1.57;;
8225;SDS011;4154;48.810;9.012;2023-12-20T00:28:09;1.93;;;1.53;;
8225;SDS011;4154;48.810;9.012;2023-12-20T00:30:34;1.70;;;1.60;;
8225;SDS011;4154;48.810;9.012;2023-12-20T00:33:01;1.93;;;1.73;;
8225;SDS011;4154;48.810;9.012;2023-12-20T00:35:27;1.70;;;1.60;;
8225;SDS011;4154;48.810;9.012;2023-12-20T00:37:53;1.80;;;1.70;;
8225;SDS011;4154;48.810;9.012;2023-12-20T00:40:18;2.97;;;1.60;;
8225;SDS011;4154;48.810;9.012;2023-12-20T00:42:45;1.70;;;1.60;;
8225;SDS011;4154;48.810;9.012;2023-12-20T00:45:11;1.60;;;1.50;;
8225;SDS011;4154;48.810;9.012;2023-12-20T00:47:37;1.57;;;1.47;;
8225;SDS011;4154;48.810;9.012;2023-12-20T00:50:03;1.60;;;1.50;;
8225;SDS011;4154;48.810;9.012;2023-12-20T00:52:29;2.53;;;1.70;;
8225;SDS011;4154;48.810;9.012;2023-12-20T00:54:55;3.10;;;1.70;;
8225;SDS011;4154;48.810;9.012;2023-12-20T00:57:21;1.70;;;1.60;;
8225;SDS011;4154;48.810;9.012;2023-12-20T00:59:47;1.80;;;1.70;;
8225;SDS011;4154;48.810;9.012;2023-12-20T01:02:12;2.07;;;1.60;;
8225;SDS011;4154;48.810;9.012;2023-12-20T01:04:38;2.20;;;1.70;;
8225;SDS011;4154;48.810;9.012;2023-12-20T01:07:03;1.53;;;1.43;;
8225;SDS011;4154;48.810;9.012;2023-12-20T01:09:29;2.07;;;1.70;;
8225;SDS011;4154;48.810;9.012;2023-12-20T01:11:55;3.17;;;1.70;;
8225;SDS011;4154;48.810;9.012;2023-12-20T01:14:20;1.93;;;1.40;;
8225;SDS011;4154;48.810;9.012;2023-12-20T01:16:46;1.73;;;1.50;;
8225;SDS011;4154;48.810;9.012;2023-12-20T01:19:12;1.50;;;1.40;;
8225;SDS011;4154;48.810;9.012;2023-12-20T01:21:39;1.67;;;1.57;;
8225;SDS011;4154;48.810;9.012;2023-12-20T01:24:05;1.60;;;1.50;;
8225;SDS011;4154;48.810;9.012;2023-12-20T01:26:31;1.70;;;1.60;;
8225;SDS011;4154;48.810;9.012;2023-12-20T01:28:56;1.97;;;1.53;;
8225;SDS011;4154;48.810;9.012;2023-12-20T01:31:22;1.90;;;1.67;;
8225;SDS011;4154;48.810;9.012;2023-12-20T01:33:48;2.60;;;1.60;;
8225;SDS011;4154;48.810;9.012;2023-12-20T01:36:14;1.67;;;1.40;;
8225;SDS011;4154;48.810;9.012;2023-12-20T01:38:39;2.80;;;2.20;;
8225;SDS011;4154;48.810;9.012;2023-12-20T01:41:05;2.07;;;1.87;;
8225;SDS011;4154;48.810;9.012;2023-12-20T01:43:30;1.80;;;1.70;;
8225;SDS011;4154;48.810;9.012;2023-12-20T01:45:59;2.17;;;1.80;;
8225;SDS011;4154;48.810;9.012;2023-12-20T01:48:25;1.70;;;1.60;;
8225;SDS011;4154;48.810;9.012;2023-12-20T01:50:52;2.67;;;1.87;;
8225;SDS011;4154;48.810;9.012;2023-12-20T01:53:20;1.93;;;1.60;;
8225;SDS011;4154;48.810;9.012;2023-12-20T01:55:50;1.60;;;1.50;;
8225;SDS011;4154;48.810;9.012;2023-12-20T01:58:19;1.70;;;1.27;;
8225;SDS011;4154;48.810;9.012;2023-12-20T02:00:46;1.00;;;1.00;;
8225;SDS011;4154;48.810;9.012;2023-12-20T02:03:13;0.80;;;0.80;;
8225;SDS011;4154;48.810;9.012;2023-12-20T02:05:40;0.73;;;0.73;;
8225;SDS011;4154;48.810;9.012;2023-12-20T02:08:06;0.40;;;0.40;;
8225;SDS011;4154;48.810;9.012;2023-12-20T02:10:32;0.37;;;0.37;;
8225;SDS011;4154;48.810;9.012;2023-12-20T02:12:58;0.50;;;0.40;;
8225;SDS011;4154;48.810;9.012;2023-12-20T02:15:23;0.87;;;0.27;;
8225;SDS011;4154;48.810;9.012;2023-12-20T02:17:49;0.30;;;0.30;;
8225;SDS011;4154;48.810;9.012;2023-12-20T02:20:16;0.30;;;0.20;;
8225;SDS011;4154;48.810;9.012;2023-12-20T02:22:42;0.20;;;0.20;;
8225;SDS011;4154;48.810;9.012;2023-12-20T02:25:07;0.20;;;0.20;;
8225;SDS011;4154;48.810;9.012;2023-12-20T02:27:34;0.33;;;0.20;;
8225;SDS011;4154;48.810;9.012;2023-12-20T02:30:00;0.20;;;0.20;;
8225;SDS011;4154;48.810;9.012;2023-12-20T02:32:26;1.37;;;0.30;;
8225;SDS011;4154;48.810;9.012;2023-12-20T02:34:52;0.10;;;0.10;;
8225;SDS011;4154;48.810;9.012;2023-12-20T02:37:19;0.20;;;0.20;;
8225;SDS011;4154;48.810;9.012;2023-12-20T02:39:45;0.10;;;0.10;;
8225;SDS011;4154;48.810;9.012;2023-12-20T02:42:11;0.20;;;0.20;;
8225;SDS011;4154;48.810;9.012;2023-12-20T02:44:36;0.20;;;0.20;;
8225;SDS011;4154;48.810;9.012;2023-12-20T02:47:02;0.10;;;0.10;;
8225;SDS011;4154;48.810;9.012;2023-12-20T02:49:28;0.20;;;0.20;;
8225;SDS011;4154;48.810;9.012;2023-12-20T02:51:54;0.10;;;0.10;;
8225;SDS011;4154;48.810;9.012;2023-12-20T02:54:20;0.20;;;0.20;;
8225;SDS011;4154;48.810;9.012;2023-12-20T02:56:46;0.10;;;0.10;;
8225;SDS011;4154;48.810;9.012;2023-12-20T02:59:12;0.10;;;0.10;;
8225;SDS011;4154;48.810;9.012;2023-12-20T03:01:42;0.17;;;0.17;;
8225;SDS011;4154;48.810;9.012;2023-12-20T03:04:10;0.10;;;0.10;;
8225;SDS011;4154;48.810;9.012;2023-12-20T03:06:36;0.97;;;0.13;;
8225;SDS011;4154;48.810;9.012;2023-12-20T03:09:02;0.30;;;0.30;;
8225;SDS011;4154;48.810;9.012;2023-12-20T03:11:28;0.30;;;0.30;;
8225;SDS011;4154;48.810;9.012;2023-12-20T03:13:54;0.20;;;0.20;;
8225;SDS011;4154;48.810;9.012;2023-12-20T03:16:21;0.23;;;0.20;;
8225;SDS011;4154;48.810;9.012;2023-12-20T03:18:46;0.30;;;0.20;;
8225;SDS011;4154;48.810;9.012;2023-12-20T03:21:12;0.30;;;0.30;;
8225;SDS011;4154;48.810;9.012;2023-12-20T03:23:38;0.30;;;0.30;;
8225;SDS011;4154;48.810;9.012;2023-12-20T03:26:06;0.13;;;0.13;;
8225;SDS011;4154;48.810;9.012;2023-12-20T03:28:32;0.13;;;0.13;;
8225;SDS011;4154;48.810;9.012;2023-12-20T03:30:58;0.20;;;0.20;;
8225;SDS011;4154;48.810;9.012;2023-12-20T03:33:24;0.40;;;0.40;;
8225;SDS011;4154;48.810;9.012;2023-12-20T03:35:50;0.83;;;0.30;;
8225;SDS011;4154;48.810;9.012;2023-12-20T03:38:16;0.20;;;0.20;;
8225;SDS011;4154;48.810;9.012;2023-12-20T03:40:42;0.60;;;0.30;;
8225;SDS011;4154;48.810;9.012;2023-12-20T03:43:07;0.20;;;0.20;;
8225;SDS011;4154;48.810;9.012;2023-12-20T03:45:33;0.20;;;0.20;;
8225;SDS011;4154;48.810;9.012;2023-12-20T03:47:59;0.40;;;0.20;;
8225;SDS011;4154;48.810;9.012;2023-12-20T03:50:25;0.20;;;0.20;;
8225;SDS011;4154;48.810;9.012;2023-12-20T03:52:51;0.20;;;0.20;;
8225;SDS011;4154;48.810;9.012;2023-12-20T03:55:17;0.20;;;0.20;;
8225;SDS011;4154;48.810;9.012;2023-12-20T03:57:43;0.10;;;0.10;;
8225;SDS011;4154;48.810;9.012;2023-12-20T04:00:09;0.10;;;0.10;;
8225;SDS011;4154;48.810;9.012;2023-12-20T04:02:39;0.10;;;0.10;;
8225;SDS011;4154;48.810;9.012;2023-12-20T04:05:07;0.10;;;0.10;;
8225;SDS011;4154;48.810;9.012;2023-12-20T04:07:35;0.10;;;0.00;;
8225;SDS011;4154;48.810;9.012;2023-12-20T04:10:01;0.20;;;0.20;;
8225;SDS011;4154;48.810;9.012;2023-12-20T04:12:29;0.20;;;0.20;;
8225;SDS011;4154;48.810;9.012;2023-12-20T04:14:55;0.10;;;0.10;;
8225;SDS011;4154;48.810;9.012;2023-12-20T04:17:21;0.20;;;0.20;;
8225;SDS011;4154;48.810;9.012;2023-12-20T04:19:48;0.00;;;0.00;;
8225;SDS011;4154;48.810;9.012;2023-12-20T04:22:17;0.10;;;0.10;;
8225;SDS011;4154;48.810;9.012;2023-12-20T04:24:43;0.20;;;0.20;;
8225;SDS011;4154;48.810;9.012;2023-12-20T04:27:09;0.27;;;0.27;;
8225;SDS011;4154;48.810;9.012;2023-12-20T04:29:36;0.67;;;0.20;;
8225;SDS011;4154;48.810;9.012;2023-12-20T04:32:01;0.30;;;0.30;;
8225;SDS011;4154;48.810;9.012;2023-12-20T04:34:27;0.30;;;0.30;;
8225;SDS011;4154;48.810;9.012;2023-12-20T04:36:53;0.27;;;0.27;;
8225;SDS011;4154;48.810;9.012;2023-12-20T04:39:19;0.23;;;0.20;;
8225;SDS011;4154;48.810;9.012;2023-12-20T04:41:44;0.30;;;0.20;;
8225;SDS011;4154;48.810;9.012;2023-12-20T04:44:12;0.20;;;0.20;;
8225;SDS011;4154;48.810;9.012;2023-12-20T04:46:38;0.40;;;0.37;;
8225;SDS011;4154;48.810;9.012;2023-12-20T04:49:04;0.40;;;0.30;;
8225;SDS011;4154;48.810;9.012;2023-12-20T04:51:32;0.57;;;0.30;;
8225;SDS011;4154;48.810;9.012;2023-12-20T04:53:59;0.40;;;0.40;;
8225;SDS011;4154;48.810;9.012;2023-12-20T04:56:26;0.47;;;0.47;;
8225;SDS011;4154;48.810;9.012;2023-12-20T04:58:51;0.47;;;0.40;;
8225;SDS011;4154;48.810;9.012;2023-12-20T05:01:17;0.20;;;0.20;;
8225;SDS011;4154;48.810;9.012;2023-12-20T05:03:43;0.10;;;0.10;;
8225;SDS011;4154;48.810;9.012;2023-12-20T05:06:09;0.10;;;0.10;;
8225;SDS011;4154;48.810;9.012;2023-12-20T05:08:35;0.20;;;0.20;;
8225;SDS011;4154;48.810;9.012;2023-12-20T05:11:01;0.20;;;0.20;;
8225;SDS011;4154;48.810;9.012;2023-12-20T05:13:28;0.20;;;0.20;;
8225;SDS011;4154;48.810;9.012;2023-12-20T05:15:53;0.30;;;0.30;;
8225;SDS011;4154;48.810;9.012;2023-12-20T05:18:20;0.13;;;0.10;;
8225;SDS011;4154;48.810;9.012;2023-12-20T05:20:46;0.10;;;0.10;;
8225;SDS011;4154;48.810;9.012;2023-12-20T05:23:12;0.30;;;0.30;;
8225;SDS011;4154;48.810;9.012;2023-12-20T05:25:38;0.10;;;0.10;;
8225;SDS011;4154;48.810;9.012;2023-12-20T05:28:04;0.20;;;0.20;;
8225;SDS011;4154;48.810;9.012;2023-12-20T05:30:30;0.50;;;0.50;;
8225;SDS011;4154;48.810;9.012;2023-12-20T05:32:55;0.50;;;0.50;;
8225;SDS011;4154;48.810;9.012;2023-12-20T05:35:21;0.40;;;0.40;;
8225;SDS011;4154;48.810;9.012;2023-12-20T05:37:48;0.47;;;0.47;;
8225;SDS011;4154;48.810;9.012;2023-12-20T05:40:14;0.40;;;0.40;;
8225;SDS011;4154;48.810;9.012;2023-12-20T05:42:40;1.57;;;0.53;;
8225;SDS011;4154;48.810;9.012;2023-12-20T05:45:06;0.30;;;0.30;;
8225;SDS011;4154;48.810;9.012;2023-12-20T05:47:32;1.03;;;0.50;;
8225;SDS011;4154;48.810;9.012;2023-12-20T05:49:58;0.40;;;0.40;;
8225;SDS011;4154;48.810;9.012;2023-12-20T05:52:23;0.60;;;0.57;;
8225;SDS011;4154;48.810;9.012;2023-12-20T05:54:49;0.47;;;0.47;;
8225;SDS011;4154;48.810;9.012;2023-12-20T05:57:15;0.60;;;0.60;;
8225;SDS011;4154;48.810;9.012;2023-12-20T05:59:41;0.60;;;0.60;;
8225;SDS011;4154;48.810;9.012;2023-12-20T06:02:06;0.70;;;0.60;;
8225;SDS011;4154;48.810;9.012;2023-12-20T06:04:32;0.50;;;0.50;;
8225;SDS011;4154;48.810;9.012;2023-12-20T06:06:58;0.60;;;0.60;;
8225;SDS011;4154;48.810;9.012;2023-12-20T06:09:24;0.57;;;0.57;;
8225;SDS011;4154;48.810;9.012;2023-12-20T06:11:52;0.93;;;0.70;;
8225;SDS011;4154;48.810;9.012;2023-12-20T06:14:18;0.70;;;0.70;;
8225;SDS011;4154;48.810;9.012;2023-12-20T06:16:44;1.17;;;1.00;;
8225;SDS011;4154;48.810;9.012;2023-12-20T06:19:10;0.67;;;0.50;;
8225;SDS011;4154;48.810;9.012;2023-12-20T06:21:36;0.80;;;0.80;;
8225;SDS011;4154;48.810;9.012;2023-12-20T06:24:02;1.10;;;0.77;;
8225;SDS011;4154;48.810;9.012;2023-12-20T06:26:27;0.97;;;0.87;;
8225;SDS011;4154;48.810;9.012;2023-12-20T06:28:53;0.80;;;0.80;;
8225;SDS011;4154;48.810;9.012;2023-12-20T06:31:19;0.77;;;0.73;;
8225;SDS011;4154;48.810;9.012;2023-12-20T06:33:44;0.93;;;0.83;;
8225;SDS011;4154;48.810;9.012;2023-12-20T06:36:13;0.63;;;0.63;;
8225;SDS011;4154;48.810;9.012;2023-12-20T06:38:39;1.43;;;0.70;;
8225;SDS011;4154;48.810;9.012;2023-12-20T06:41:05;0.90;;;0.90;;
8225;SDS011;4154;48.810;9.012;2023-12-20T06:43:31;0.70;;;0.70;;
8225;SDS011;4154;48.810;9.012;2023-12-20T06:45:58;1.07;;;0.90;;
8225;SDS011;4154;48.810;9.012;2023-12-20T06:48:25;1.30;;;0.90;;
8225;SDS011;4154;48.810;9.012;2023-12-20T06:50:51;0.97;;;0.97;;
8225;SDS011;4154;48.810;9.012;2023-12-20T06:53:17;1.10;;;1.10;;
8225;SDS011;4154;48.810;9.012;2023-12-20T06:55:43;1.20;;;1.13;;
8225;SDS011;4154;48.810;9.012;2023-12-20T06:58:08;1.57;;;1.37;;
8225;SDS011;4154;48.810;9.012;2023-12-20T07:00:34;1.40;;;1.30;;
8225;SDS011;4154;48.810;9.012;2023-12-20T07:03:00;1.60;;;1.50;;
8225;SDS011;4154;48.810;9.012;2023-12-20T07:05:25;1.87;;;1.67;;
8225;SDS011;4154;48.810;9.012;2023-12-20T07:07:51;1.47;;;1.37;;
8225;SDS011;4154;48.810;9.012;2023-12-20T07:10:17;2.10;;;1.90;;
8225;SDS011;4154;48.810;9.012;2023-12-20T07:12:43;1.90;;;1.80;;
8225;SDS011;4154;48.810;9.012;2023-12-20T07:15:09;1.80;;;1.70;;
8225;SDS011;4154;48.810;9.012;2023-12-20T07:17:35;1.60;;;1.50;;
8225;SDS011;4154;48.810;9.012;2023-12-20T07:20:01;1.50;;;1.40;;
8225;SDS011;4154;48.810;9.012;2023-12-20T07:22:29;1.53;;;1.43;;
8225;SDS011;4154;48.810;9.012;2023-12-20T07:24:59;2.00;;;1.80;;
8225;SDS011;4154;48.810;9.012;2023-12-20T07:27:25;1.73;;;1.63;;
8225;SDS011;4154;48.810;9.012;2023-12-20T07:29:51;1.70;;;1.60;;
8225;SDS011;4154;48.810;9.012;2023-12-20T07:32:18;2.00;;;1.90;;
8225;SDS011;4154;48.810;9.012;2023-12-20T07:34:44;1.97;;;1.80;;
8225;SDS011;4154;48.810;9.012;2023-12-20T07:37:10;2.20;;;2.00;;
8225;SDS011;4154;48.810;9.012;2023-12-20T07:39:37;2.53;;;2.00;;
8225;SDS011;4154;48.810;9.012;2023-12-20T07:42:05;2.30;;;2.10;;
8225;SDS011;4154;48.810;9.012;2023-12-20T07:44:31;1.90;;;1.80;;
8225;SDS011;4154;48.810;9.012;2023-12-20T07:46:56;2.53;;;2.33;;
8225;SDS011;4154;48.810;9.012;2023-12-20T07:49:23;2.40;;;2.20;;
8225;SDS011;4154;48.810;9.012;2023-12-20T07:51:49;2.70;;;2.50;;
8225;SDS011;4154;48.810;9.012;2023-12-20T07:54:15;2.40;;;2.20;;
8225;SDS011;4154;48.810;9.012;2023-12-20T07:56:41;2.17;;;2.07;;
8225;SDS011;4154;48.810;9.012;2023-12-20T07:59:07;2.77;;;2.27;;
8225;SDS011;4154;48.810;9.012;2023-12-20T08:01:33;3.30;;;2.20;;
8225;SDS011;4154;48.810;9.012;2023-12-20T08:03:58;2.57;;;2.37;;
8225;SDS011;4154;48.810;9.012;2023-12-20T08:06:24;2.87;;;2.40;;
8225;SDS011;4154;48.810;9.012;2023-12-20T08:08:50;2.80;;;2.20;;
8225;SDS011;4154;48.810;9.012;2023-12-20T08:11:15;4.17;;;2.50;;
8225;SDS011;4154;48.810;9.012;2023-12-20T08:13:41;2.50;;;2.30;;
8225;SDS011;4154;48.810;9.012;2023-12-20T08:16:07;2.73;;;2.47;;
8225;SDS011;4154;48.810;9.012;2023-12-20T08:18:33;2.33;;;2.00;;
8225;SDS011;4154;48.810;9.012;2023-12-20T08:20:58;2.37;;;2.17;;
8225;SDS011;4154;48.810;9.012;2023-12-20T08:23:25;2.40;;;2.20;;
8225;SDS011;4154;48.810;9.012;2023-12-20T08:25:50;2.77;;;1.80;;
8225;SDS011;4154;48.810;9.012;2023-12-20T08:28:16;2.07;;;1.83;;
8225;SDS011;4154;48.810;9.012;2023-12-20T08:30:42;2.30;;;1.90;;
8225;SDS011;4154;48.810;9.012;2023-12-20T08:33:07;2.20;;;2.07;;
8225;SDS011;4154;48.810;9.012;2023-12-20T08:35:37;2.30;;;2.10;;
8225;SDS011;4154;48.810;9.012;2023-12-20T08:38:06;2.83;;;2.23;;
8225;SDS011;4154;48.810;9.012;2023-12-20T08:40:32;2.53;;;2.33;;
8225;SDS011;4154;48.810;9.012;2023-12-20T08:42:58;2.43;;;2.23;;
8225;SDS011;4154;48.810;9.012;2023-12-20T08:45:23;2.53;;;2.33;;
8225;SDS011;4154;48.810;9.012;2023-12-20T08:47:49;2.50;;;2.30;;
8225;SDS011;4154;48.810;9.012;2023-12-20T08:50:15;2.70;;;2.50;;
8225;SDS011;4154;48.810;9.012;2023-12-20T08:52:41;3.43;;;2.60;;
8225;SDS011;4154;48.810;9.012;2023-12-20T08:55:07;3.37;;;2.50;;
8225;SDS011;4154;48.810;9.012;2023-12-20T08:57:33;2.87;;;2.60;;
8225;SDS011;4154;48.810;9.012;2023-12-20T08:59:59;3.10;;;2.50;;
8225;SDS011;4154;48.810;9.012;2023-12-20T09:02:24;2.27;;;2.07;;
8225;SDS011;4154;48.810;9.012;2023-12-20T09:04:50;2.47;;;2.00;;
8225;SDS011;4154;48.810;9.012;2023-12-20T09:07:25;2.50;;;1.83;;
8225;SDS011;4154;48.810;9.012;2023-12-20T09:09:52;2.00;;;1.90;;
8225;SDS011;4154;48.810;9.012;2023-12-20T09:12:18;2.67;;;2.10;;
8225;SDS011;4154;48.810;9.012;2023-12-20T09:14:45;2.87;;;2.00;;
8225;SDS011;4154;48.810;9.012;2023-12-20T09:17:15;3.30;;;2.10;;
8225;SDS011;4154;48.810;9.012;2023-12-20T09:19:42;3.33;;;1.70;;
8225;SDS011;4154;48.810;9.012;2023-12-20T09:22:09;2.83;;;1.87;;
8225;SDS011;4154;48.810;9.012;2023-12-20T09:24:35;2.70;;;1.40;;
8225;SDS011;4154;48.810;9.012;2023-12-20T09:27:01;3.17;;;1.50;;
8225;SDS011;4154;48.810;9.012;2023-12-20T09:29:28;3.53;;;1.60;;
8225;SDS011;4154;48.810;9.012;2023-12-20T09:31:54;2.73;;;1.40;;
8225;SDS011;4154;48.810;9.012;2023-12-20T09:34:20;4.13;;;1.60;;
8225;SDS011;4154;48.810;9.012;2023-12-20T09:36:46;3.33;;;1.60;;
8225;SDS011;4154;48.810;9.012;2023-12-20T09:39:17;1.90;;;1.40;;
8225;SDS011;4154;48.810;9.012;2023-12-20T09:41:44;3.57;;;1.47;;
8225;SDS011;4154;48.810;9.012;2023-12-20T09:44:21;3.03;;;1.50;;
8225;SDS011;4154;48.810;9.012;2023-12-20T09:46:49;2.80;;;1.30;;
8225;SDS011;4154;48.810;9.012;2023-12-20T09:49:18;3.77;;;1.73;;
8225;SDS011;4154;48.810;9.012;2023-12-20T09:51:46;4.10;;;1.37;;
8225;SDS011;4154;48.810;9.012;2023-12-20T09:54:15;3.50;;;1.60;;
8225;SDS011;4154;48.810;9.012;2023-12-20T09:56:43;1.90;;;1.50;;
8225;SDS011;4154;48.810;9.012;2023-12-20T09:59:09;3.20;;;1.57;;
8225;SDS011;4154;48.810;9.012;2023-12-20T10:01:36;3.37;;;1.40;;
8225;SDS011;4154;48.810;9.012;2023-12-20T10:04:09;3.33;;;1.40;;
8225;SDS011;4154;48.810;9.012;2023-12-20T10:06:37;3.33;;;1.40;;
8225;SDS011;4154;48.810;9.012;2023-12-20T10:09:08;2.97;;;1.53;;
8225;SDS011;4154;48.810;9.012;2023-12-20T10:11:35;3.73;;;1.60;;
8225;SDS011;4154;48.810;9.012;2023-12-20T10:14:03;4.10;;;1.63;;
8225;SDS011;4154;48.810;9.012;2023-12-20T10:16:30;5.97;;;1.90;;
8225;SDS011;4154;48.810;9.012;2023-12-20T10:18:57;2.67;;;1.37;;
8225;SDS011;4154;48.810;9.012;2023-12-20T10:21:25;3.07;;;1.50;;
8225;SDS011;4154;48.810;9.012;2023-12-20T10:23:54;3.27;;;1.50;;
8225;SDS011;4154;48.810;9.012;2023-12-20T10:26:25;2.60;;;1.43;;
8225;SDS011;4154;48.810;9.012;2023-12-20T10:28:55;2.67;;;1.70;;
8225;SDS011;4154;48.810;9.012;2023-12-20T10:31:26;4.47;;;1.90;;
8225;SDS011;4154;48.810;9.012;2023-12-20T10:34:01;3.83;;;1.77;;
8225;SDS011;4154;48.810;9.012;2023-12-20T10:36:29;3.67;;;1.80;;
8225;SDS011;4154;48.810;9.012;2023-12-20T10:39:01;3.23;;;1.80;;
8225;SDS011;4154;48.810;9.012;2023-12-20T10:41:29;3.63;;;1.63;;
8225;SDS011;4154;48.810;9.012;2023-12-20T10:44:03;3.10;;;1.57;;
8225;SDS011;4154;48.810;9.012;2023-12-20T10:46:33;3.53;;;1.40;;
8225;SDS011;4154;48.810;9.012;2023-12-20T10:48:59;2.03;;;1.40;;
8225;SDS011;4154;48.810;9.012;2023-12-20T10:51:29;3.83;;;1.50;;
8225;SDS011;4154;48.810;9.012;2023-12-20T10:53:56;5.00;;;1.60;;
8225;SDS011;4154;48.810;9.012;2023-12-20T10:56:22;3.17;;;1.77;;
8225;SDS011;4154;48.810;9.012;2023-12-20T10:58:51;2.67;;;1.43;;
8225;SDS011;4154;48.810;9.012;2023-12-20T11:01:17;2.37;;;1.40;;
8225;SDS011;4154;48.810;9.012;2023-12-20T11:03:51;3.57;;;1.33;;
8225;SDS011;4154;48.810;9.012;2023-12-20T11:06:36;2.70;;;1.30;;
8225;SDS011;4154;48.810;9.012;2023-12-20T11:12:02;2.43;;;1.70;;
8225;SDS011;4154;48.810;9.012;2023-12-20T11:14:54;3.30;;;1.47;;
8225;SDS011;4154;48.810;9.012;2023-12-20T11:17:22;4.13;;;1.63;;
8225;SDS011;4154;48.810;9.012;2023-12-20T11:22:17;3.40;;;1.30;;
8225;SDS011;4154;48.810;9.012;2023-12-20T11:24:46;3.57;;;1.40;;
8225;SDS011;4154;48.810;9.012;2023-12-20T11:27:13;2.67;;;1.67;;
8225;SDS011;4154;48.810;9.012;2023-12-20T11:29:40;2.07;;;1.30;;
8225;SDS011;4154;48.810;9.012;2023-12-20T11:34:54;2.23;;;1.43;;
8225;SDS011;4154;48.810;9.012;2023-12-20T11:37:31;4.43;;;1.60;;
8225;SDS011;4154;48.810;9.012;2023-12-20T11:40:11;4.00;;;1.40;;
8225;SDS011;4154;48.810;9.012;2023-12-20T11:42:40;5.20;;;1.53;;
8225;SDS011;4154;48.810;9.012;2023-12-20T11:45:10;4.93;;;1.30;;
8225;SDS011;4154;48.810;9.012;2023-12-20T11:47:40;3.60;;;1.87;;
8225;SDS011;4154;48.810;9.012;2023-12-20T11:50:11;3.77;;;1.57;;
8225;SDS011;4154;48.810;9.012;2023-12-20T11:52:37;3.60;;;1.37;;
8225;SDS011;4154;48.810;9.012;2023-12-20T11:55:03;3.83;;;1.70;;
8225;SDS011;4154;48.810;9.012;2023-12-20T11:57:29;2.67;;;1.40;;
8225;SDS011;4154;48.810;9.012;2023-12-20T11:59:56;4.27;;;1.80;;
8225;SDS011;4154;48.810;9.012;2023-12-20T12:02:22;3.33;;;1.50;;
8225;SDS011;4154;48.810;9.012;2023-12-20T12:04:48;4.03;;;1.50;;
8225;SDS011;4154;48.810;9.012;2023-12-20T12:07:17;4.07;;;1.90;;
8225;SDS011;4154;48.810;9.012;2023-12-20T12:09:43;2.93;;;1.77;;
8225;SDS011;4154;48.810;9.012;2023-12-20T12:12:11;4.00;;;1.80;;
8225;SDS011;4154;48.810;9.012;2023-12-20T12:14:37;3.50;;;1.70;;
8225;SDS011;4154;48.810;9.012;2023-12-20T12:17:05;4.03;;;1.80;;
8225;SDS011;4154;48.810;9.012;2023-12-20T12:19:39;3.00;;;1.60;;
8225;SDS011;4154;48.810;9.012;2023-12-20T12:22:10;2.77;;;1.60;;
8225;SDS011;4154;48.810;9.012;2023-12-20T12:24:42;3.10;;;1.50;;
8225;SDS011;4154;48.810;9.012;2023-12-20T12:27:09;3.57;;;1.50;;
8225;SDS011;4154;48.810;9.012;2023-12-20T12:29:36;2.80;;;1.50;;
8225;SDS011;4154;48.810;9.012;2023-12-20T12:32:06;3.23;;;1.43;;
8225;SDS011;4154;48.810;9.012;2023-12-20T12:34:34;4.90;;;1.50;;
8225;SDS011;4154;48.810;9.012;2023-12-20T12:37:00;3.17;;;1.10;;
8225;SDS011;4154;48.810;9.012;2023-12-20T12:39:28;5.17;;;1.37;;
8225;SDS011;4154;48.810;9.012;2023-12-20T12:41:55;2.87;;;1.43;;
8225;SDS011;4154;48.810;9.012;2023-12-20T12:44:22;3.00;;;1.50;;
8225;SDS011;4154;48.810;9.012;2023-12-20T12:46:51;3.53;;;1.47;;
8225;SDS011;4154;48.810;9.012;2023-12-20T12:49:19;2.53;;;1.20;;
8225;SDS011;4154;48.810;9.012;2023-12-20T12:51:46;2.87;;;1.40;;
8225;SDS011;4154;48.810;9.012;2023-12-20T12:54:12;2.93;;;1.23;;
8225;SDS011;4154;48.810;9.012;2023-12-20T12:56:38;2.67;;;1.20;;
8225;SDS011;4154;48.810;9.012;2023-12-20T12:59:04;2.97;;;1.40;;
8225;SDS011;4154;48.810;9.012;2023-12-20T13:01:30;4.23;;;1.37;;
8225;SDS011;4154;48.810;9.012;2023-12-20T13:03:56;3.07;;;1.30;;
8225;SDS011;4154;48.810;9.012;2023-12-20T13:06:22;2.53;;;1.20;;
8225;SDS011;4154;48.810;9.012;2023-12-20T13:08:48;3.93;;;1.30;;
8225;SDS011;4154;48.810;9.012;2023-12-20T13:11:14;3.27;;;1.30;;
8225;SDS011;4154;48.810;9.012;2023-12-20T13:13:40;2.83;;;1.40;;
8225;SDS011;4154;48.810;9.012;2023-12-20T13:16:06;2.37;;;1.17;;
8225;SDS011;4154;48.810;9.012;2023-12-20T13:18:32;2.77;;;1.33;;
8225;SDS011;4154;48.810;9.012;2023-12-20T13:20:58;2.17;;;1.30;;
8225;SDS011;4154;48.810;9.012;2023-12-20T13:23:23;2.17;;;1.00;;
8225;SDS011;4154;48.810;9.012;2023-12-20T13:25:49;2.87;;;1.27;;
8225;SDS011;4154;48.810;9.012;2023-12-20T13:28:15;3.03;;;1.20;;
8225;SDS011;4154;48.810;9.012;2023-12-20T13:30:41;3.63;;;1.43;;
8225;SDS011;4154;48.810;9.012;2023-12-20T13:33:06;4.20;;;1.60;;
8225;SDS011;4154;48.810;9.012;2023-12-20T13:35:32;2.67;;;1.07;;
8225;SDS011;4154;48.810;9.012;2023-12-20T13:37:59;3.43;;;1.30;;
8225;SDS011;4154;48.810;9.012;2023-12-20T13:40:25;3.07;;;1.40;;
8225;SDS011;4154;48.810;9.012;2023-12-20T13:42:51;3.07;;;1.20;;
8225;SDS011;4154;48.810;9.012;2023-12-20T13:45:17;2.70;;;1.50;;
8225;SDS011;4154;48.810;9.012;2023-12-20T13:47:43;4.03;;;1.27;;
8225;SDS011;4154;48.810;9.012;2023-12-20T13:50:09;4.70;;;1.20;;
8225;SDS011;4154;48.810;9.012;2023-12-20T13:52:35;2.63;;;1.20;;
8225;SDS011;4154;48.810;9.012;2023-12-20T13:55:01;2.93;;;1.23;;
8225;SDS011;4154;48.810;9.012;2023-12-20T13:57:27;2.17;;;1.10;;
8225;SDS011;4154;48.810;9.012;2023-12-20T13:59:54;2.73;;;1.30;;
8225;SDS011;4154;48.810;9.012;2023-12-20T14:02:22;3.17;;;1.13;;
8225;SDS011;4154;48.810;9.012;2023-12-20T14:04:47;2.73;;;1.30;;
8225;SDS011;4154;48.810;9.012;2023-12-20T14:07:13;2.10;;;1.30;;
8225;SDS011;4154;48.810;9.012;2023-12-20T14:09:39;2.80;;;1.33;;
8225;SDS011;4154;48.810;9.012;2023-12-20T14:12:10;2.53;;;1.30;;
8225;SDS011;4154;48.810;9.012;2023-12-20T14:14:39;2.80;;;1.40;;
8225;SDS011;4154;48.810;9.012;2023-12-20T14:17:04;2.17;;;1.30;;
8225;SDS011;4154;48.810;9.012;2023-12-20T14:19:33;1.93;;;1.20;;
8225;SDS011;4154;48.810;9.012;2023-12-20T14:21:59;2.10;;;1.30;;
8225;SDS011;4154;48.810;9.012;2023-12-20T14:24:29;3.80;;;1.40;;
8225;SDS011;4154;48.810;9.012;2023-12-20T14:26:55;2.40;;;1.40;;
8225;SDS011;4154;48.810;9.012;2023-12-20T14:29:20;2.03;;;1.23;;
8225;SDS011;4154;48.810;9.012;2023-12-20T14:31:46;3.70;;;1.40;;
8225;SDS011;4154;48.810;9.012;2023-12-20T14:34:12;3.67;;;1.33;;
8225;SDS011;4154;48.810;9.012;2023-12-20T14:36:38;3.97;;;1.43;;
8225;SDS011;4154;48.810;9.012;2023-12-20T14:39:04;3.67;;;1.50;;
8225;SDS011;4154;48.810;9.012;2023-12-20T14:41:30;2.70;;;1.37;;
8225;SDS011;4154;48.810;9.012;2023-12-20T14:43:56;2.77;;;1.63;;
8225;SDS011;4154;48.810;9.012;2023-12-20T14:46:21;2.13;;;1.40;;
8225;SDS011;4154;48.810;9.012;2023-12-20T14:48:47;3.63;;;1.57;;
8225;SDS011;4154;48.810;9.012;2023-12-20T14:51:14;4.30;;;1.37;;
8225;SDS011;4154;48.810;9.012;2023-12-20T14:53:39;1.70;;;1.20;;
8225;SDS011;4154;48.810;9.012;2023-12-20T14:56:07;4.33;;;1.70;;
8225;SDS011;4154;48.810;9.012;2023-12-20T14:58:32;2.17;;;1.50;;
8225;SDS011;4154;48.810;9.012;2023-12-20T15:00:58;4.47;;;1.80;;
8225;SDS011;4154;48.810;9.012;2023-12-20T15:03:24;1.93;;;1.40;;
8225;SDS011;4154;48.810;9.012;2023-12-20T15:05:50;3.07;;;1.20;;
8225;SDS011;4154;48.810;9.012;2023-12-20T15:08:15;2.57;;;1.17;;
8225;SDS011;4154;48.810;9.012;2023-12-20T15:10:41;7.30;;;3.87;;
8225;SDS011;4154;48.810;9.012;2023-12-20T15:13:07;4.03;;;2.10;;
8225;SDS011;4154;48.810;9.012;2023-12-20T15:15:32;2.07;;;1.10;;
8225;SDS011;4154;48.810;9.012;2023-12-20T15:17:59;3.37;;;1.60;;
8225;SDS011;4154;48.810;9.012;2023-12-20T15:20:25;2.93;;;1.30;;